Featured Flight

MET2281 - Kansas City to Oklahoma City

Bombardier Dash-8-Q200
835AG
1 hr 20 mins
272 nm
Scheduled - Daily

Bid/PiRep Status

Bid was submitted on Oct 21 2016.

PiRep # 73801: Approved by Dave Nichols on October 27th, 2016 1:43 UTC

Departure

Departing from
Kansas City (MCI)
Departure gate
Scheduled Departure
GMT 1400
Local 0900
METAR KMCI 252353Z 32005KT 10SM FEW038 BKN060 OVC080 20/14 A2943 RMK AO2 SLP959 T02000139 10222 20200 52007
TAF KMCI 252329Z 2600/2624 24008KT P6SM BKN040 BKN150 FM260300 34010KT 6SM -SHRA VCTS OVC035CB FM260600 33010KT P6SM VCSH OVC015 FM261000 33010KT P6SM OVC010 FM261800 33010KT P6SM OVC020 FM262200 33009KT P6SM BKN025

Arrival

Arriving at
Oklahoma City (OKC)
Arrival gate
8
Scheduled Arrival
GMT 1520
Local 1020
METAR KOKC 252352Z 34023G30KT 10SM SCT060 SCT110 BKN250 25/16 A2938 RMK AO2 LTG DSNT NE SLP938 WSHFT 2327 FROPA PK WND 3328/2330 CB DSNT NE MOV NE T02500161 10294 20250 53002
TAF KOKC 252342Z 2600/2624 34010G20KT P6SM BKN110 BKN250 TEMPO 2602/2606 4SM TSRA BKN020 BKN090CB FM260600 36015KT P6SM OVC010 FM261200 36020G25KT P6SM OVC008 FM262100 33006KT P6SM BKN020 FM262300 VRB05KT P6SM BKN040

Route Map

Planning Resources

WLDCT2 GULLI1
DOSOA J25 TUL GULLI
â– RACER3 DOSOA TUL TRUMP5
KMCI DOSOA TUL DWINE KOKC
DOSOA WP1 TUL KOKC
Route:
OFP Layout:
Units:
Detailed Navlog:
ETOPS Planning:
Plan Stepclimbs:
Runway Analysis:
Include NOTAMS:
FIR NOTAMS:
Flight Maps:

Return Flights

MET2282
Bombardier Dash-8-Q200
1550 GMT
MET2286
Bombardier Dash-8-Q200
2230 GMT
MET3421
Bombardier Dash-8-Q400
1235 GMT
MET3423
Bombardier Dash-8-Q400
1940 GMT

Popularity

Hub Current Bids PiReps this month Total PiReps
KMCI 0 1 2
KLAX 0 0 0
KBOS 0 0 0